sensor_id;sensor_type;location;lat;lon;timestamp;pressure;altitude;pressure_sealevel;temperature;humidity
27613;BME280;15036;48.094;-1.690;2023-10-08T00:02:25;101878.41;;;22.63;49.10
27613;BME280;15036;48.094;-1.690;2023-10-08T00:04:51;101880.34;;;22.63;49.10
27613;BME280;15036;48.094;-1.690;2023-10-08T00:07:20;101884.50;;;22.49;49.40
27613;BME280;15036;48.094;-1.690;2023-10-08T00:09:49;101875.50;;;22.41;49.22
27613;BME280;15036;48.094;-1.690;2023-10-08T00:12:17;101885.19;;;22.67;48.72
27613;BME280;15036;48.094;-1.690;2023-10-08T00:14:42;101890.81;;;22.72;48.74
27613;BME280;15036;48.094;-1.690;2023-10-08T00:17:17;101893.72;;;22.49;49.16
27613;BME280;15036;48.094;-1.690;2023-10-08T00:19:43;101888.41;;;22.48;49.44
27613;BME280;15036;48.094;-1.690;2023-10-08T00:22:10;101897.94;;;22.52;49.08
27613;BME280;15036;48.094;-1.690;2023-10-08T00:24:37;101893.56;;;22.56;49.12
27613;BME280;15036;48.094;-1.690;2023-10-08T00:27:06;101894.19;;;22.58;49.30
27613;BME280;15036;48.094;-1.690;2023-10-08T00:29:32;101891.00;;;22.54;49.32
27613;BME280;15036;48.094;-1.690;2023-10-08T00:31:58;101891.53;;;22.51;49.36
27613;BME280;15036;48.094;-1.690;2023-10-08T00:34:23;101892.19;;;22.41;49.43
27613;BME280;15036;48.094;-1.690;2023-10-08T00:36:50;101900.69;;;22.35;49.84
27613;BME280;15036;48.094;-1.690;2023-10-08T00:39:16;101891.41;;;22.29;49.81
27613;BME280;15036;48.094;-1.690;2023-10-08T00:41:48;101894.19;;;22.29;49.87
27613;BME280;15036;48.094;-1.690;2023-10-08T00:44:14;101885.84;;;22.29;49.78
27613;BME280;15036;48.094;-1.690;2023-10-08T00:46:55;101895.16;;;22.23;49.60
27613;BME280;15036;48.094;-1.690;2023-10-08T00:49:22;101886.31;;;22.26;49.94
27613;BME280;15036;48.094;-1.690;2023-10-08T00:52:00;101889.59;;;22.23;49.90
27613;BME280;15036;48.094;-1.690;2023-10-08T00:54:26;101889.00;;;22.21;49.69
27613;BME280;15036;48.094;-1.690;2023-10-08T00:56:54;101887.69;;;22.24;49.77
27613;BME280;15036;48.094;-1.690;2023-10-08T00:59:26;101885.63;;;22.19;49.77
27613;BME280;15036;48.094;-1.690;2023-10-08T01:01:52;101896.16;;;22.17;49.65
27613;BME280;15036;48.094;-1.690;2023-10-08T01:04:39;101888.06;;;22.16;49.89
27613;BME280;15036;48.094;-1.690;2023-10-08T01:07:05;101887.63;;;22.07;50.28
27613;BME280;15036;48.094;-1.690;2023-10-08T01:09:41;101884.50;;;22.04;50.34
27613;BME280;15036;48.094;-1.690;2023-10-08T01:12:21;101881.59;;;21.99;50.24
27613;BME280;15036;48.094;-1.690;2023-10-08T01:15:01;101886.66;;;22.02;50.53
27613;BME280;15036;48.094;-1.690;2023-10-08T01:17:41;101877.84;;;21.93;50.57
27613;BME280;15036;48.094;-1.690;2023-10-08T01:20:16;101883.41;;;21.93;50.44
27613;BME280;15036;48.094;-1.690;2023-10-08T01:22:57;101879.44;;;21.89;50.74
27613;BME280;15036;48.094;-1.690;2023-10-08T01:25:23;101880.81;;;21.87;50.69
27613;BME280;15036;48.094;-1.690;2023-10-08T01:27:55;101878.13;;;21.80;50.63
27613;BME280;15036;48.094;-1.690;2023-10-08T01:30:21;101880.44;;;21.83;50.83
27613;BME280;15036;48.094;-1.690;2023-10-08T01:32:46;101874.63;;;21.73;50.89
27613;BME280;15036;48.094;-1.690;2023-10-08T01:35:12;101872.09;;;21.72;50.93
27613;BME280;15036;48.094;-1.690;2023-10-08T01:37:49;101868.09;;;21.68;50.86
27613;BME280;15036;48.094;-1.690;2023-10-08T01:40:16;101861.97;;;21.54;51.04
27613;BME280;15036;48.094;-1.690;2023-10-08T01:42:41;101859.69;;;21.51;51.10
27613;BME280;15036;48.094;-1.690;2023-10-08T01:45:08;101866.34;;;21.50;51.23
27613;BME280;15036;48.094;-1.690;2023-10-08T01:47:35;101858.00;;;21.50;50.98
27613;BME280;15036;48.094;-1.690;2023-10-08T01:50:01;101861.28;;;21.47;51.30
27613;BME280;15036;48.094;-1.690;2023-10-08T01:52:31;101854.16;;;21.51;51.20
27613;BME280;15036;48.094;-1.690;2023-10-08T01:54:56;101855.00;;;21.40;51.29
27613;BME280;15036;48.094;-1.690;2023-10-08T01:57:22;101851.13;;;21.41;51.04
27613;BME280;15036;48.094;-1.690;2023-10-08T01:59:48;101852.47;;;21.38;51.31
27613;BME280;15036;48.094;-1.690;2023-10-08T02:02:13;101844.72;;;21.40;51.29
27613;BME280;15036;48.094;-1.690;2023-10-08T02:04:41;101848.22;;;21.36;51.42
27613;BME280;15036;48.094;-1.690;2023-10-08T02:07:07;101845.22;;;21.26;51.60
27613;BME280;15036;48.094;-1.690;2023-10-08T02:09:38;101848.34;;;21.29;51.33
27613;BME280;15036;48.094;-1.690;2023-10-08T02:12:04;101845.81;;;21.28;51.27
27613;BME280;15036;48.094;-1.690;2023-10-08T02:14:29;101849.81;;;21.20;51.57
27613;BME280;15036;48.094;-1.690;2023-10-08T02:16:57;101847.91;;;21.21;51.65
27613;BME280;15036;48.094;-1.690;2023-10-08T02:19:26;101841.13;;;21.17;51.70
27613;BME280;15036;48.094;-1.690;2023-10-08T02:21:56;101840.88;;;21.18;51.59
27613;BME280;15036;48.094;-1.690;2023-10-08T02:24:23;101844.38;;;21.14;51.54
27613;BME280;15036;48.094;-1.690;2023-10-08T02:26:50;101836.78;;;21.09;51.75
27613;BME280;15036;48.094;-1.690;2023-10-08T02:29:16;101835.09;;;21.08;51.66
27613;BME280;15036;48.094;-1.690;2023-10-08T02:31:42;101827.47;;;21.04;51.79
27613;BME280;15036;48.094;-1.690;2023-10-08T02:34:09;101840.28;;;21.05;51.98
27613;BME280;15036;48.094;-1.690;2023-10-08T02:36:35;101833.88;;;21.04;51.71
27613;BME280;15036;48.094;-1.690;2023-10-08T02:39:06;101827.59;;;20.97;52.01
27613;BME280;15036;48.094;-1.690;2023-10-08T02:41:51;101830.97;;;20.99;51.70
27613;BME280;15036;48.094;-1.690;2023-10-08T02:44:18;101825.63;;;20.98;51.98
27613;BME280;15036;48.094;-1.690;2023-10-08T02:46:48;101825.53;;;20.93;51.87
27613;BME280;15036;48.094;-1.690;2023-10-08T02:49:17;101828.19;;;20.88;52.04
27613;BME280;15036;48.094;-1.690;2023-10-08T02:51:46;101823.09;;;20.85;52.19
27613;BME280;15036;48.094;-1.690;2023-10-08T02:54:12;101830.81;;;20.83;52.11
27613;BME280;15036;48.094;-1.690;2023-10-08T02:56:51;101823.22;;;20.78;52.24
27613;BME280;15036;48.094;-1.690;2023-10-08T02:59:17;101809.94;;;20.80;52.18
27613;BME280;15036;48.094;-1.690;2023-10-08T03:01:44;101814.53;;;20.74;52.24
27613;BME280;15036;48.094;-1.690;2023-10-08T03:04:10;101819.72;;;20.71;52.11
27613;BME280;15036;48.094;-1.690;2023-10-08T03:06:48;101819.56;;;20.66;52.16
27613;BME280;15036;48.094;-1.690;2023-10-08T03:09:21;101811.75;;;20.63;52.01
27613;BME280;15036;48.094;-1.690;2023-10-08T03:11:50;101818.38;;;20.62;52.16
27613;BME280;15036;48.094;-1.690;2023-10-08T03:14:16;101815.22;;;20.58;52.02
27613;BME280;15036;48.094;-1.690;2023-10-08T03:16:52;101813.91;;;20.49;52.02
27613;BME280;15036;48.094;-1.690;2023-10-08T03:19:18;101810.75;;;20.46;51.88
27613;BME280;15036;48.094;-1.690;2023-10-08T03:21:48;101807.59;;;20.42;52.00
27613;BME280;15036;48.094;-1.690;2023-10-08T03:24:16;101803.00;;;20.36;52.05
27613;BME280;15036;48.094;-1.690;2023-10-08T03:27:00;101800.72;;;20.33;51.97
27613;BME280;15036;48.094;-1.690;2023-10-08T03:29:35;101809.91;;;20.34;51.89
27613;BME280;15036;48.094;-1.690;2023-10-08T03:32:11;101805.66;;;20.31;52.17
27613;BME280;15036;48.094;-1.690;2023-10-08T03:34:48;101811.09;;;20.26;52.23
27613;BME280;15036;48.094;-1.690;2023-10-08T03:37:18;101806.00;;;20.23;52.39
27613;BME280;15036;48.094;-1.690;2023-10-08T03:39:47;101807.09;;;20.22;52.35
27613;BME280;15036;48.094;-1.690;2023-10-08T03:42:22;101806.47;;;20.20;52.45
27613;BME280;15036;48.094;-1.690;2023-10-08T03:44:49;101806.59;;;20.25;52.41
27613;BME280;15036;48.094;-1.690;2023-10-08T03:47:21;101808.63;;;20.18;52.65
27613;BME280;15036;48.094;-1.690;2023-10-08T03:49:49;101810.50;;;20.36;52.32
27613;BME280;15036;48.094;-1.690;2023-10-08T03:52:16;101813.66;;;20.51;52.18
27613;BME280;15036;48.094;-1.690;2023-10-08T03:54:42;101815.47;;;20.57;52.35
27613;BME280;15036;48.094;-1.690;2023-10-08T03:57:13;101821.72;;;20.52;52.40
27613;BME280;15036;48.094;-1.690;2023-10-08T03:59:44;101809.63;;;20.24;52.82
27613;BME280;15036;48.094;-1.690;2023-10-08T04:02:13;101816.66;;;20.08;53.44
27613;BME280;15036;48.094;-1.690;2023-10-08T04:04:43;101806.19;;;20.10;53.34
27613;BME280;15036;48.094;-1.690;2023-10-08T04:07:20;101807.84;;;20.11;53.08
27613;BME280;15036;48.094;-1.690;2023-10-08T04:09:58;101805.16;;;20.05;53.23
27613;BME280;15036;48.094;-1.690;2023-10-08T04:12:36;101801.19;;;20.01;53.01
27613;BME280;15036;48.094;-1.690;2023-10-08T04:15:09;101807.22;;;19.98;53.01
27613;BME280;15036;48.094;-1.690;2023-10-08T04:17:37;101806.59;;;19.96;53.14
27613;BME280;15036;48.094;-1.690;2023-10-08T04:20:13;101799.59;;;19.93;52.99
27613;BME280;15036;48.094;-1.690;2023-10-08T04:23:02;101803.69;;;19.91;52.99
27613;BME280;15036;48.094;-1.690;2023-10-08T04:25:30;101806.69;;;19.89;53.13
27613;BME280;15036;48.094;-1.690;2023-10-08T04:27:57;101803.47;;;19.92;53.17
27613;BME280;15036;48.094;-1.690;2023-10-08T04:30:27;101806.31;;;19.85;53.21
27613;BME280;15036;48.094;-1.690;2023-10-08T04:33:01;101810.28;;;19.42;54.48
27613;BME280;15036;48.094;-1.690;2023-10-08T04:35:37;101808.09;;;19.26;55.18
27613;BME280;15036;48.094;-1.690;2023-10-08T04:38:09;101815.47;;;18.46;58.14
27613;BME280;15036;48.094;-1.690;2023-10-08T04:40:36;101814.66;;;18.39;58.73
27613;BME280;15036;48.094;-1.690;2023-10-08T04:43:14;101820.69;;;18.30;59.24
27613;BME280;15036;48.094;-1.690;2023-10-08T04:45:41;101815.81;;;18.00;60.41
27613;BME280;15036;48.094;-1.690;2023-10-08T04:48:06;101818.38;;;18.27;59.79
27613;BME280;15036;48.094;-1.690;2023-10-08T04:50:35;101833.34;;;17.75;61.28
27613;BME280;15036;48.094;-1.690;2023-10-08T04:53:03;101828.34;;;17.52;62.10
27613;BME280;15036;48.094;-1.690;2023-10-08T04:55:35;101829.41;;;17.45;62.18
27613;BME280;15036;48.094;-1.690;2023-10-08T04:58:06;101830.75;;;17.86;60.57
27613;BME280;15036;48.094;-1.690;2023-10-08T05:00:44;101828.94;;;18.67;57.79
27613;BME280;15036;48.094;-1.690;2023-10-08T05:03:20;101825.38;;;18.85;56.96
27613;BME280;15036;48.094;-1.690;2023-10-08T05:05:48;101823.56;;;18.97;56.20
27613;BME280;15036;48.094;-1.690;2023-10-08T05:08:36;101818.97;;;19.09;56.05
27613;BME280;15036;48.094;-1.690;2023-10-08T05:11:23;101825.81;;;19.25;55.72
27613;BME280;15036;48.094;-1.690;2023-10-08T05:14:10;101821.94;;;19.26;55.46
27613;BME280;15036;48.094;-1.690;2023-10-08T05:16:54;101827.50;;;19.26;55.33
27613;BME280;15036;48.094;-1.690;2023-10-08T05:19:28;101829.63;;;19.24;55.08
27613;BME280;15036;48.094;-1.690;2023-10-08T05:22:15;101835.25;;;18.99;55.86
27613;BME280;15036;48.094;-1.690;2023-10-08T05:24:47;101828.50;;;19.13;55.69
27613;BME280;15036;48.094;-1.690;2023-10-08T05:27:36;101826.88;;;19.24;55.17
27613;BME280;15036;48.094;-1.690;2023-10-08T05:30:27;101829.31;;;19.14;55.62
27613;BME280;15036;48.094;-1.690;2023-10-08T05:33:02;101833.13;;;19.19;55.32
27613;BME280;15036;48.094;-1.690;2023-10-08T05:35:28;101830.56;;;19.18;55.26
27613;BME280;15036;48.094;-1.690;2023-10-08T05:38:21;101832.25;;;19.19;55.12
27613;BME280;15036;48.094;-1.690;2023-10-08T05:40:52;101830.56;;;19.18;55.35
27613;BME280;15036;48.094;-1.690;2023-10-08T05:43:26;101835.34;;;19.29;55.03
27613;BME280;15036;48.094;-1.690;2023-10-08T05:46:13;101828.81;;;19.23;55.24
27613;BME280;15036;48.094;-1.690;2023-10-08T05:48:55;101829.81;;;19.29;55.02
27613;BME280;15036;48.094;-1.690;2023-10-08T05:51:37;101833.38;;;19.36;54.99
27613;BME280;15036;48.094;-1.690;2023-10-08T05:54:24;101826.38;;;19.33;55.03
27613;BME280;15036;48.094;-1.690;2023-10-08T05:56:56;101824.66;;;19.32;54.90
27613;BME280;15036;48.094;-1.690;2023-10-08T05:59:38;101829.34;;;19.32;54.92
27613;BME280;15036;48.094;-1.690;2023-10-08T06:02:31;101832.94;;;19.39;54.92
27613;BME280;15036;48.094;-1.690;2023-10-08T06:05:07;101823.53;;;19.40;54.54
27613;BME280;15036;48.094;-1.690;2023-10-08T06:07:39;101825.44;;;19.39;54.63
27613;BME280;15036;48.094;-1.690;2023-10-08T06:10:23;101825.22;;;19.41;54.62
27613;BME280;15036;48.094;-1.690;2023-10-08T06:15:46;101824.03;;;19.30;54.58
27613;BME280;15036;48.094;-1.690;2023-10-08T06:18:28;101826.97;;;19.35;54.52
27613;BME280;15036;48.094;-1.690;2023-10-08T06:23:24;101832.50;;;19.35;54.56
27613;BME280;15036;48.094;-1.690;2023-10-08T06:25:51;101825.69;;;19.38;54.66
27613;BME280;15036;48.094;-1.690;2023-10-08T06:28:25;101830.53;;;19.42;54.30
27613;BME280;15036;48.094;-1.690;2023-10-08T06:30:52;101830.91;;;19.46;54.25
27613;BME280;15036;48.094;-1.690;2023-10-08T06:33:23;101829.25;;;19.45;54.11
27613;BME280;15036;48.094;-1.690;2023-10-08T06:35:51;101831.91;;;19.51;54.16
27613;BME280;15036;48.094;-1.690;2023-10-08T06:38:28;101844.75;;;19.46;54.10
27613;BME280;15036;48.094;-1.690;2023-10-08T06:40:59;101849.44;;;19.45;54.15
27613;BME280;15036;48.094;-1.690;2023-10-08T06:43:34;101845.31;;;19.36;54.41
27613;BME280;15036;48.094;-1.690;2023-10-08T06:46:02;101841.53;;;19.49;53.83
27613;BME280;15036;48.094;-1.690;2023-10-08T06:48:28;101841.44;;;19.55;53.75
27613;BME280;15036;48.094;-1.690;2023-10-08T06:50:55;101837.22;;;19.53;54.04
27613;BME280;15036;48.094;-1.690;2023-10-08T06:53:23;101836.22;;;19.65;53.65
27613;BME280;15036;48.094;-1.690;2023-10-08T06:55:49;101834.28;;;19.66;53.75
27613;BME280;15036;48.094;-1.690;2023-10-08T06:58:22;101846.91;;;19.62;53.67
27613;BME280;15036;48.094;-1.690;2023-10-08T07:00:48;101849.38;;;19.70;53.47
27613;BME280;15036;48.094;-1.690;2023-10-08T07:03:15;101861.75;;;19.67;53.70
27613;BME280;15036;48.094;-1.690;2023-10-08T07:05:46;101857.28;;;19.84;53.28
27613;BME280;15036;48.094;-1.690;2023-10-08T07:08:22;101855.03;;;19.75;53.51
27613;BME280;15036;48.094;-1.690;2023-10-08T07:10:51;101847.34;;;19.77;53.31
27613;BME280;15036;48.094;-1.690;2023-10-08T07:13:19;101850.03;;;19.83;53.45
27613;BME280;15036;48.094;-1.690;2023-10-08T07:15:49;101851.63;;;19.91;53.12
27613;BME280;15036;48.094;-1.690;2023-10-08T07:18:15;101851.63;;;19.91;53.00
27613;BME280;15036;48.094;-1.690;2023-10-08T07:20:47;101855.81;;;19.82;53.22
27613;BME280;15036;48.094;-1.690;2023-10-08T07:23:19;101861.97;;;20.02;52.82
27613;BME280;15036;48.094;-1.690;2023-10-08T07:25:46;101858.66;;;19.94;53.05
27613;BME280;15036;48.094;-1.690;2023-10-08T07:28:18;101868.25;;;20.09;52.75
27613;BME280;15036;48.094;-1.690;2023-10-08T07:30:45;101864.84;;;20.07;52.70
27613;BME280;15036;48.094;-1.690;2023-10-08T07:33:10;101865.94;;;20.24;52.39
27613;BME280;15036;48.094;-1.690;2023-10-08T07:35:47;101870.69;;;20.17;52.57
27613;BME280;15036;48.094;-1.690;2023-10-08T07:38:38;101877.03;;;20.24;52.19
27613;BME280;15036;48.094;-1.690;2023-10-08T07:41:13;101878.84;;;20.30;52.36
27613;BME280;15036;48.094;-1.690;2023-10-08T07:43:43;101870.59;;;20.42;52.20
27613;BME280;15036;48.094;-1.690;2023-10-08T07:46:09;101870.59;;;20.53;51.76
27613;BME280;15036;48.094;-1.690;2023-10-08T07:48:36;101873.88;;;20.62;51.50
27613;BME280;15036;48.094;-1.690;2023-10-08T07:51:01;101867.13;;;20.58;51.57
27613;BME280;15036;48.094;-1.690;2023-10-08T07:53:28;101872.59;;;20.88;51.15
27613;BME280;15036;48.094;-1.690;2023-10-08T07:56:04;101866.31;;;20.81;51.26
27613;BME280;15036;48.094;-1.690;2023-10-08T07:58:32;101869.44;;;20.96;51.00
27613;BME280;15036;48.094;-1.690;2023-10-08T08:01:03;101862.97;;;21.02;50.21
27613;BME280;15036;48.094;-1.690;2023-10-08T08:03:28;101859.47;;;21.06;50.21
27613;BME280;15036;48.094;-1.690;2023-10-08T08:05:54;101862.75;;;21.15;50.18
27613;BME280;15036;48.094;-1.690;2023-10-08T08:08:19;101871.78;;;21.33;49.71
27613;BME280;15036;48.094;-1.690;2023-10-08T08:10:46;101875.53;;;21.39;49.59
27613;BME280;15036;48.094;-1.690;2023-10-08T08:13:12;101880.13;;;21.45;49.36
27613;BME280;15036;48.094;-1.690;2023-10-08T08:15:39;101887.09;;;21.59;49.20
27613;BME280;15036;48.094;-1.690;2023-10-08T08:18:08;101889.03;;;21.70;48.83
27613;BME280;15036;48.094;-1.690;2023-10-08T08:20:44;101883.94;;;21.79;48.67
27613;BME280;15036;48.094;-1.690;2023-10-08T08:23:09;101885.59;;;21.91;48.29
27613;BME280;15036;48.094;-1.690;2023-10-08T08:25:41;101884.75;;;21.91;48.21
27613;BME280;15036;48.094;-1.690;2023-10-08T08:28:12;101883.63;;;22.03;48.42
27613;BME280;15036;48.094;-1.690;2023-10-08T08:30:46;101880.97;;;22.08;48.14
27613;BME280;15036;48.094;-1.690;2023-10-08T08:33:14;101888.94;;;22.16;48.09
27613;BME280;15036;48.094;-1.690;2023-10-08T08:35:47;101884.91;;;22.24;47.78
27613;BME280;15036;48.094;-1.690;2023-10-08T08:38:12;101890.88;;;22.32;47.65
27613;BME280;15036;48.094;-1.690;2023-10-08T08:40:38;101890.47;;;22.40;47.42
27613;BME280;15036;48.094;-1.690;2023-10-08T08:43:05;101891.19;;;22.48;47.37
27613;BME280;15036;48.094;-1.690;2023-10-08T08:45:31;101885.44;;;22.66;46.89
27613;BME280;15036;48.094;-1.690;2023-10-08T08:47:58;101885.84;;;22.74;46.61
27613;BME280;15036;48.094;-1.690;2023-10-08T08:50:25;101888.97;;;22.94;46.27
27613;BME280;15036;48.094;-1.690;2023-10-08T08:52:51;101887.81;;;23.07;46.01
27613;BME280;15036;48.094;-1.690;2023-10-08T08:55:17;101886.44;;;23.26;44.95
27613;BME280;15036;48.094;-1.690;2023-10-08T08:57:44;101885.84;;;23.41;44.36
27613;BME280;15036;48.094;-1.690;2023-10-08T09:00:14;101878.72;;;23.50;44.21
27613;BME280;15036;48.094;-1.690;2023-10-08T09:02:42;101882.38;;;23.50;44.25
27613;BME280;15036;48.094;-1.690;2023-10-08T09:05:10;101876.78;;;23.50;43.97
27613;BME280;15036;48.094;-1.690;2023-10-08T09:08:03;101879.53;;;23.88;43.23
27613;BME280;15036;48.094;-1.690;2023-10-08T09:10:32;101888.03;;;23.98;43.26
27613;BME280;15036;48.094;-1.690;2023-10-08T09:13:06;101881.78;;;24.08;42.78
27613;BME280;15036;48.094;-1.690;2023-10-08T09:15:32;101884.13;;;24.21;42.53
27613;BME280;15036;48.094;-1.690;2023-10-08T09:17:58;101884.63;;;24.40;42.03
27613;BME280;15036;48.094;-1.690;2023-10-08T09:20:29;101882.50;;;24.25;42.18
27613;BME280;15036;48.094;-1.690;2023-10-08T09:23:11;101880.78;;;24.46;41.99
27613;BME280;15036;48.094;-1.690;2023-10-08T09:25:40;101883.63;;;24.51;41.85
27613;BME280;15036;48.094;-1.690;2023-10-08T09:28:06;101884.66;;;24.71;41.12
27613;BME280;15036;48.094;-1.690;2023-10-08T09:30:36;101877.16;;;24.72;41.05
27613;BME280;15036;48.094;-1.690;2023-10-08T09:33:09;101874.41;;;24.77;41.06
27613;BME280;15036;48.094;-1.690;2023-10-08T09:35:35;101874.28;;;24.93;40.74
27613;BME280;15036;48.094;-1.690;2023-10-08T09:38:06;101870.25;;;25.16;40.16
27613;BME280;15036;48.094;-1.690;2023-10-08T09:40:37;101872.03;;;25.27;40.08
27613;BME280;15036;48.094;-1.690;2023-10-08T09:43:03;101871.41;;;25.20;39.61
27613;BME280;15036;48.094;-1.690;2023-10-08T09:45:30;101872.09;;;25.37;39.03
27613;BME280;15036;48.094;-1.690;2023-10-08T09:47:56;101872.09;;;25.37;38.87
27613;BME280;15036;48.094;-1.690;2023-10-08T09:50:33;101879.41;;;25.43;38.73
27613;BME280;15036;48.094;-1.690;2023-10-08T09:55:26;101883.97;;;25.59;38.12
27613;BME280;15036;48.094;-1.690;2023-10-08T09:57:52;101882.66;;;25.67;38.04
27613;BME280;15036;48.094;-1.690;2023-10-08T10:00:21;101881.00;;;25.71;38.22
27613;BME280;15036;48.094;-1.690;2023-10-08T10:02:58;101872.31;;;25.77;37.40
27613;BME280;15036;48.094;-1.690;2023-10-08T10:05:29;101870.94;;;25.85;37.61
27613;BME280;15036;48.094;-1.690;2023-10-08T10:07:55;101856.19;;;25.95;37.81
27613;BME280;15036;48.094;-1.690;2023-10-08T10:10:29;101864.06;;;26.03;37.94
27613;BME280;15036;48.094;-1.690;2023-10-08T10:13:03;101864.03;;;25.98;37.68
27613;BME280;15036;48.094;-1.690;2023-10-08T10:15:28;101855.69;;;26.13;37.51
27613;BME280;15036;48.094;-1.690;2023-10-08T10:17:59;101850.97;;;26.23;36.92
27613;BME280;15036;48.094;-1.690;2023-10-08T10:20:33;101856.91;;;26.47;36.36
27613;BME280;15036;48.094;-1.690;2023-10-08T10:22:59;101853.56;;;26.70;36.02
27613;BME280;15036;48.094;-1.690;2023-10-08T10:25:34;101851.09;;;26.74;36.06
27613;BME280;15036;48.094;-1.690;2023-10-08T10:30:29;101861.19;;;26.80;35.89
27613;BME280;15036;48.094;-1.690;2023-10-08T10:32:55;101852.19;;;26.93;35.54
27613;BME280;15036;48.094;-1.690;2023-10-08T10:35:25;101849.66;;;26.76;35.54
27613;BME280;15036;48.094;-1.690;2023-10-08T10:37:52;101850.47;;;27.12;34.98
27613;BME280;15036;48.094;-1.690;2023-10-08T10:40:21;101854.69;;;27.19;35.32
27613;BME280;15036;48.094;-1.690;2023-10-08T10:42:57;101854.13;;;27.22;35.34
27613;BME280;15036;48.094;-1.690;2023-10-08T10:45:23;101850.16;;;27.49;35.09
27613;BME280;15036;48.094;-1.690;2023-10-08T10:48:21;101855.78;;;27.43;34.78
27613;BME280;15036;48.094;-1.690;2023-10-08T10:50:50;101861.09;;;27.50;34.52
27613;BME280;15036;48.094;-1.690;2023-10-08T10:53:40;101858.53;;;27.64;34.07
27613;BME280;15036;48.094;-1.690;2023-10-08T10:56:34;101861.88;;;27.66;33.81
27613;BME280;15036;48.094;-1.690;2023-10-08T10:59:06;101871.94;;;27.87;33.37
27613;BME280;15036;48.094;-1.690;2023-10-08T11:01:48;101881.47;;;27.91;33.46
27613;BME280;15036;48.094;-1.690;2023-10-08T11:04:33;101874.19;;;27.95;32.98
27613;BME280;15036;48.094;-1.690;2023-10-08T11:07:10;101873.28;;;28.04;32.83
27613;BME280;15036;48.094;-1.690;2023-10-08T11:09:37;101862.69;;;28.35;32.54
27613;BME280;15036;48.094;-1.690;2023-10-08T11:12:06;101866.53;;;28.49;31.93
27613;BME280;15036;48.094;-1.690;2023-10-08T11:14:41;101858.69;;;28.56;32.31
27613;BME280;15036;48.094;-1.690;2023-10-08T11:17:23;101858.53;;;28.71;31.56
27613;BME280;15036;48.094;-1.690;2023-10-08T11:19:54;101868.31;;;28.79;32.37
27613;BME280;15036;48.094;-1.690;2023-10-08T11:22:19;101864.56;;;28.88;32.09
27613;BME280;15036;48.094;-1.690;2023-10-08T11:24:48;101859.78;;;28.94;31.59
27613;BME280;15036;48.094;-1.690;2023-10-08T11:27:17;101864.94;;;29.10;31.33
27613;BME280;15036;48.094;-1.690;2023-10-08T11:29:54;101865.13;;;29.24;31.25
27613;BME280;15036;48.094;-1.690;2023-10-08T11:32:24;101868.84;;;29.20;31.15
27613;BME280;15036;48.094;-1.690;2023-10-08T11:34:58;101855.19;;;29.32;31.11
27613;BME280;15036;48.094;-1.690;2023-10-08T11:37:29;101861.31;;;29.39;30.73
27613;BME280;15036;48.094;-1.690;2023-10-08T11:39:55;101853.78;;;29.58;30.95
27613;BME280;15036;48.094;-1.690;2023-10-08T11:42:26;101849.22;;;29.62;30.63
27613;BME280;15036;48.094;-1.690;2023-10-08T11:44:57;101841.81;;;29.71;30.57
27613;BME280;15036;48.094;-1.690;2023-10-08T11:47:27;101834.16;;;29.76;30.20
27613;BME280;15036;48.094;-1.690;2023-10-08T11:50:01;101840.75;;;29.90;29.97
27613;BME280;15036;48.094;-1.690;2023-10-08T11:52:38;101832.78;;;30.16;29.77
27613;BME280;15036;48.094;-1.690;2023-10-08T11:55:10;101834.88;;;30.06;30.13
27613;BME280;15036;48.094;-1.690;2023-10-08T11:57:49;101822.91;;;30.37;29.74
27613;BME280;15036;48.094;-1.690;2023-10-08T12:00:16;101810.88;;;30.32;29.83
27613;BME280;15036;48.094;-1.690;2023-10-08T12:02:47;101805.25;;;30.27;29.85
27613;BME280;15036;48.094;-1.690;2023-10-08T12:05:13;101800.34;;;30.56;29.67
27613;BME280;15036;48.094;-1.690;2023-10-08T12:07:48;101801.88;;;30.30;29.58
27613;BME280;15036;48.094;-1.690;2023-10-08T12:10:16;101801.28;;;30.65;29.10
27613;BME280;15036;48.094;-1.690;2023-10-08T12:12:50;101799.03;;;30.80;27.94
27613;BME280;15036;48.094;-1.690;2023-10-08T12:15:22;101799.44;;;31.06;27.81
27613;BME280;15036;48.094;-1.690;2023-10-08T12:17:51;101802.59;;;31.05;27.77
27613;BME280;15036;48.094;-1.690;2023-10-08T12:20:36;101798.66;;;31.33;27.78
27613;BME280;15036;48.094;-1.690;2023-10-08T12:23:03;101793.22;;;31.23;27.76
27613;BME280;15036;48.094;-1.690;2023-10-08T12:25:29;101788.31;;;31.28;27.33
27613;BME280;15036;48.094;-1.690;2023-10-08T12:27:58;101781.53;;;31.56;27.51
27613;BME280;15036;48.094;-1.690;2023-10-08T12:30:27;101785.38;;;31.33;27.16
27613;BME280;15036;48.094;-1.690;2023-10-08T12:32:56;101787.69;;;31.72;26.53
27613;BME280;15036;48.094;-1.690;2023-10-08T12:35:22;101782.75;;;32.05;26.38
27613;BME280;15036;48.094;-1.690;2023-10-08T12:37:49;101778.84;;;32.14;26.52
27613;BME280;15036;48.094;-1.690;2023-10-08T12:40:15;101776.31;;;32.26;26.72
27613;BME280;15036;48.094;-1.690;2023-10-08T12:42:52;101773.09;;;32.41;26.25
27613;BME280;15036;48.094;-1.690;2023-10-08T12:45:18;101767.84;;;32.71;26.15
27613;BME280;15036;48.094;-1.690;2023-10-08T12:47:50;101769.63;;;32.89;25.38
27613;BME280;15036;48.094;-1.690;2023-10-08T12:50:17;101766.19;;;33.31;25.11
27613;BME280;15036;48.094;-1.690;2023-10-08T12:52:49;101770.63;;;33.54;24.92
27613;BME280;15036;48.094;-1.690;2023-10-08T12:55:29;101770.13;;;34.08;24.23
27613;BME280;15036;48.094;-1.690;2023-10-08T12:57:56;101763.91;;;34.75;23.59
27613;BME280;15036;48.094;-1.690;2023-10-08T13:00:31;101764.88;;;35.42;22.64
27613;BME280;15036;48.094;-1.690;2023-10-08T13:02:56;101772.16;;;35.60;22.16
27613;BME280;15036;48.094;-1.690;2023-10-08T13:05:23;101755.66;;;36.45;22.09
27613;BME280;15036;48.094;-1.690;2023-10-08T13:07:56;101757.56;;;36.74;21.30
27613;BME280;15036;48.094;-1.690;2023-10-08T13:10:25;101753.50;;;36.95;21.34
27613;BME280;15036;48.094;-1.690;2023-10-08T13:12:51;101751.06;;;37.18;21.14